Airfield :
LOGIN :

Register | Disclaimer

   EN    FR    IT 

 










Legend :    VFR   Marginal VFR   IFR   Intensive IFR   Very Intensive IFR
Visi :
Ceiling :
>= 8 km
>= 3000ft
5 to 8 km
1000 to 3000 ft
1500m to 5 km
500 to 1000 ft
800 to 1500m
200 to 500 ft
< 800m
< 200 ft
Symbols :   Thunderstorms  Fog  Heavy snow  Heavy precipitations  Wind > 20 kt
SIGMETs :     Misc.  Thunderstorms  Icing  Turbulence  Mountain Waves  Volcanic Ashes







- Airport Elevation : 256 ft
- IATA code : CFR
- Download approach charts


LFRK - Caen

CURRENT METAR :
  • 240700Z AUTO 23009KT 9999 OVC008 16/15 Q1022 TEMPO 4000 BR BECMG BKN015

EXPIRED METARs :
  • 240630Z AUTO 23012KT 9999 OVC006 16/15 Q1022 TEMPO 4000 BR BECMG BKN015
  • 240600Z AUTO 24010KT 9999 OVC006 16/15 Q1022 TEMPO 4000 BR
  • 240530Z AUTO 24008KT 9999 OVC005 16/16 Q1022 TEMPO 4000 BR
  • 240500Z AUTO 24008KT 9999 OVC005 16/16 Q1022
  • 240430Z AUTO 24010KT 9999 OVC006 16/15 Q1022

TAF TAF LFRK
Valid from the 24 at 06:00 until the 24 at 15:00 UTC


240500Z 2406/2415 22010KT 9999 BKN007
TEMPO 2406/2408 4000 BR BKN005
BECMG 2408/2410 BKN015
BECMG 2412/2414 BKN020
Met : +33 2 31 26 68 11
No reported NOTAMs for that airfield.



MET'MAP, your aeronautical weather chart ! - Copyright ORBIFLY December 2007 - Disclaimer

ORBIFLY MET'MAP TEAM :

Programming & Development : Alexandra Zaïnal
Concept & Development : Baudouin d'Aumeries
Co-Development & Prog : Marc-Olivier Méhu
Technical & hardware support : Manuel Goepfert

Contact : metmap@orbifly.com




SOURCES & CREDITS :

   NOAA